Time;durP1;ratioP1;P1;durP2;ratioP2;P2;SDS_P1;SDS_P2;PMS_P1;PMS_P2;Temp;Humidity;BMP_temperature;BMP_pressure;BME280_temperature;BME280_humidity;BME280_pressure;Samples;Min_cycle;Max_cycle;Signal;HPM_P1;HPM_P2
2023/01/08 04:02:04;;;;;;;3.20;2.53;;;9.10;77.30;;;;;;5409107;23;20503;-67
2023/01/08 04:04:31;;;;;;;2.77;2.50;;;9.20;77.00;;;;;;5000032;28;21007;-67
2023/01/08 04:06:58;;;;;;;3.00;2.17;;;9.20;76.80;;;;;;5000292;28;20500;-67
2023/01/08 04:09:24;;;;;;;2.97;2.57;;;9.30;76.80;;;;;;5000293;28;20449;-68
2023/01/08 04:11:51;;;;;;;2.40;1.87;;;9.30;76.30;;;;;;4999858;28;20985;-68
2023/01/08 04:14:18;;;;;;;2.50;2.00;;;9.20;76.60;;;;;;4999890;28;20946;-67
2023/01/08 04:16:45;;;;;;;2.90;2.20;;;9.20;76.50;;;;;;5000681;28;20576;-67
2023/01/08 04:19:13;;;;;;;3.00;2.30;;;9.20;76.20;;;;;;5000136;28;20501;-68
2023/01/08 04:21:40;;;;;;;2.60;2.07;;;9.20;76.80;;;;;;5000103;28;20468;-68
2023/01/08 04:24:07;;;;;;;2.37;2.03;;;9.20;76.70;;;;;;4999843;28;20457;-67
2023/01/08 04:26:34;;;;;;;2.70;1.80;;;9.20;76.40;;;;;;5000081;28;20523;-67
2023/01/08 04:29:02;;;;;;;3.17;2.47;;;9.10;76.80;;;;;;5000091;28;20455;-67
2023/01/08 04:31:28;;;;;;;2.60;2.37;;;9.10;76.70;;;;;;4999954;28;20473;-69
2023/01/08 04:33:55;;;;;;;3.37;2.67;;;9.00;77.30;;;;;;5000021;28;20495;-68
2023/01/08 04:36:23;;;;;;;2.67;2.13;;;8.90;77.20;;;;;;4999929;28;20477;-67
2023/01/08 04:38:50;;;;;;;2.47;1.90;;;8.90;77.70;;;;;;4999998;28;20449;-68
2023/01/08 04:41:17;;;;;;;3.03;2.47;;;9.00;77.50;;;;;;4999878;28;20472;-68
2023/01/08 04:43:43;;;;;;;3.53;2.27;;;9.00;77.50;;;;;;4999644;28;20969;-68
2023/01/08 04:46:10;;;;;;;2.90;2.37;;;9.00;77.70;;;;;;4999908;28;20453;-66
2023/01/08 04:48:37;;;;;;;3.40;2.43;;;9.20;77.50;;;;;;4999941;28;20504;-67
2023/01/08 04:51:05;;;;;;;3.60;1.80;;;9.20;77.10;;;;;;4999831;28;20527;-68
2023/01/08 04:53:35;;;;;;;3.83;2.83;;;9.10;76.80;;;;;;4999841;28;20449;-67
2023/01/08 04:56:04;;;;;;;2.63;2.03;;;9.10;77.80;;;;;;4999767;28;20453;-68
2023/01/08 04:58:30;;;;;;;2.70;1.83;;;9.20;77.30;;;;;;4999792;28;20449;-67
2023/01/08 05:00:57;;;;;;;2.70;2.03;;;9.20;77.40;;;;;;4999510;28;20539;-68
2023/01/08 05:03:23;;;;;;;2.47;1.77;;;9.20;77.50;;;;;;4996550;28;20457;-68
2023/01/08 05:05:50;;;;;;;2.60;1.67;;;9.40;77.70;;;;;;4996409;28;20504;-68
2023/01/08 05:08:17;;;;;;;2.30;1.50;;;9.40;78.00;;;;;;4996636;28;20841;-67
2023/01/08 05:10:45;;;;;;;2.57;1.70;;;9.40;78.50;;;;;;4996523;28;20465;-68
2023/01/08 05:13:11;;;;;;;2.20;1.47;;;9.50;78.90;;;;;;4996553;28;20453;-67
2023/01/08 05:15:38;;;;;;;3.60;1.73;;;9.30;79.40;;;;;;4997094;28;20453;-68
2023/01/08 05:18:06;;;;;;;2.20;1.47;;;9.30;79.90;;;;;;4996845;28;20481;-67
2023/01/08 05:20:33;;;;;;;2.40;1.40;;;9.20;80.40;;;;;;4996020;28;20947;-68
2023/01/08 05:23:00;;;;;;;2.00;1.33;;;9.20;81.00;;;;;;4996048;28;20970;-68
2023/01/08 05:25:26;;;;;;;1.83;1.10;;;9.20;81.00;;;;;;4996284;28;20454;-67
2023/01/08 05:27:54;;;;;;;2.30;1.43;;;9.30;81.40;;;;;;4996298;28;20500;-67
2023/01/08 05:30:21;;;;;;;1.93;1.17;;;9.30;80.90;;;;;;4996064;28;20452;-67
2023/01/08 05:32:48;;;;;;;1.97;1.30;;;9.30;80.80;;;;;;4996196;28;20445;-68
2023/01/08 05:35:14;;;;;;;2.17;1.17;;;9.20;81.10;;;;;;4996150;28;20449;-67
2023/01/08 05:37:41;;;;;;;2.97;1.27;;;9.30;80.90;;;;;;4996081;28;20596;-67
2023/01/08 05:40:08;;;;;;;2.97;1.40;;;9.30;81.20;;;;;;4996031;28;20495;-68
2023/01/08 05:42:36;;;;;;;2.10;1.33;;;9.30;81.30;;;;;;4995628;28;20472;-68
2023/01/08 05:45:05;;;;;;;1.97;1.27;;;9.30;81.80;;;;;;4995997;28;20507;-67
2023/01/08 05:47:33;;;;;;;2.63;1.30;;;9.30;81.60;;;;;;4995888;28;20445;-67
2023/01/08 05:50:00;;;;;;;2.00;1.13;;;9.20;81.70;;;;;;4995889;28;20503;-67
2023/01/08 05:52:27;;;;;;;2.20;1.27;;;9.20;82.50;;;;;;4995784;28;20465;-67
2023/01/08 05:54:54;;;;;;;1.70;1.03;;;9.20;82.80;;;;;;4995812;28;20449;-68
2023/01/08 05:57:20;;;;;;;2.37;1.07;;;9.20;82.80;;;;;;4995665;28;20481;-67
2023/01/08 05:59:47;;;;;;;2.07;1.40;;;8.90;83.80;;;;;;4995681;28;20495;-67
2023/01/08 06:02:15;;;;;;;2.17;1.23;;;8.90;84.70;;;;;;4995273;28;20507;-68
2023/01/08 06:04:42;;;;;;;2.07;1.30;;;8.80;85.10;;;;;;4995658;28;20500;-68
2023/01/08 06:07:09;;;;;;;2.00;1.10;;;8.70;85.70;;;;;;4995587;28;20449;-67
2023/01/08 06:09:35;;;;;;;2.40;1.30;;;8.70;85.80;;;;;;4995466;28;20449;-67
2023/01/08 06:12:02;;;;;;;2.80;1.50;;;8.70;86.00;;;;;;4995415;28;20480;-67
2023/01/08 06:14:28;;;;;;;1.60;1.00;;;8.80;86.20;;;;;;4994877;28;20453;-67
2023/01/08 06:16:55;;;;;;;2.00;1.20;;;8.80;85.80;;;;;;4995272;28;20543;-68
2023/01/08 06:19:23;;;;;;;1.70;1.10;;;8.70;86.50;;;;;;4995308;28;20454;-67
2023/01/08 06:21:50;;;;;;;2.47;1.20;;;8.80;86.60;;;;;;4995271;28;20556;-69
2023/01/08 06:24:16;;;;;;;1.83;1.30;;;9.00;86.70;;;;;;4995253;28;20453;-69
2023/01/08 06:26:43;;;;;;;1.90;1.20;;;8.90;86.20;;;;;;4995192;28;20441;-69
2023/01/08 06:29:10;;;;;;;1.90;1.20;;;8.80;86.40;;;;;;4995105;28;20449;-69
2023/01/08 06:31:36;;;;;;;2.03;1.20;;;8.80;86.40;;;;;;4995013;28;20465;-70
2023/01/08 06:34:03;;;;;;;2.03;1.17;;;8.80;86.30;;;;;;4995074;28;20484;-68
2023/01/08 06:36:31;;;;;;;1.83;1.20;;;8.80;86.80;;;;;;4995053;28;20496;-68
2023/01/08 06:38:58;;;;;;;2.00;1.10;;;8.70;87.10;;;;;;4994974;28;20500;-68
2023/01/08 06:41:24;;;;;;;2.33;1.57;;;8.70;87.30;;;;;;4994801;28;20528;-68
2023/01/08 06:43:51;;;;;;;2.10;1.30;;;8.70;87.70;;;;;;4994532;28;20480;-68
2023/01/08 06:46:18;;;;;;;1.70;1.13;;;8.60;87.80;;;;;;4994797;28;20508;-68
2023/01/08 06:48:45;;;;;;;1.60;0.80;;;8.60;88.10;;;;;;4994795;28;20441;-69
2023/01/08 06:51:11;;;;;;;1.70;0.97;;;8.60;88.20;;;;;;4994698;28;20469;-70
2023/01/08 06:53:39;;;;;;;2.30;1.07;;;8.50;88.50;;;;;;4994387;28;20449;-69
2023/01/08 06:56:09;;;;;;;1.90;0.90;;;8.40;88.80;;;;;;4994625;28;20445;-67
2023/01/08 06:58:37;;;;;;;1.90;1.10;;;8.30;89.10;;;;;;4994512;28;20532;-68
2023/01/08 07:01:04;;;;;;;1.80;1.20;;;8.40;89.60;;;;;;4994291;28;20637;-69
2023/01/08 07:03:31;;;;;;;1.93;1.13;;;8.40;89.50;;;;;;4994563;28;20437;-68
2023/01/08 07:05:58;;;;;;;1.90;1.10;;;8.40;89.70;;;;;;4994502;28;20500;-68
2023/01/08 07:08:25;;;;;;;2.03;1.03;;;8.40;90.00;;;;;;4994465;28;20511;-68
2023/01/08 07:10:53;;;;;;;2.10;1.20;;;8.30;90.40;;;;;;4994339;28;20523;-68
2023/01/08 07:13:21;;;;;;;1.90;1.00;;;8.30;90.50;;;;;;4994370;28;20461;-68
2023/01/08 07:15:48;;;;;;;2.00;1.10;;;8.30;90.90;;;;;;4993951;28;20973;-69
2023/01/08 07:18:14;;;;;;;1.50;0.70;;;8.30;90.80;;;;;;4994227;28;20896;-68
2023/01/08 07:20:41;;;;;;;1.73;1.10;;;8.30;90.50;;;;;;4994752;28;20585;-69
2023/01/08 07:23:10;;;;;;;1.77;1.00;;;8.20;90.80;;;;;;4994238;28;20591;-69
2023/01/08 07:25:37;;;;;;;1.80;0.97;;;8.20;90.60;;;;;;4993378;28;20457;-69
2023/01/08 07:28:06;;;;;;;1.50;0.80;;;8.20;90.80;;;;;;4994234;28;20868;-68
2023/01/08 07:30:32;;;;;;;3.00;1.10;;;8.20;90.80;;;;;;4993991;28;20509;-69
2023/01/08 07:32:59;;;;;;;1.60;0.90;;;8.20;91.00;;;;;;4994108;28;20457;-69
2023/01/08 07:35:26;;;;;;;1.90;0.90;;;8.10;91.70;;;;;;4994088;28;20536;-68
2023/01/08 07:37:53;;;;;;;1.60;0.80;;;8.00;92.20;;;;;;4993974;28;20487;-68
2023/01/08 07:40:20;;;;;;;1.60;0.90;;;8.10;92.40;;;;;;4994019;28;20454;-68
2023/01/08 07:42:46;;;;;;;2.07;1.57;;;8.10;92.30;;;;;;4993876;28;20476;-68
2023/01/08 07:45:14;;;;;;;1.70;1.00;;;8.10;92.30;;;;;;4993944;28;20500;-68
2023/01/08 07:47:41;;;;;;;2.10;1.00;;;8.10;92.30;;;;;;4994320;28;20516;-68
2023/01/08 07:50:08;;;;;;;1.60;0.80;;;8.10;92.20;;;;;;4993942;28;20996;-68
2023/01/08 07:52:35;;;;;;;2.00;0.80;;;8.10;92.20;;;;;;4993832;28;20519;-68
2023/01/08 07:55:02;;;;;;;1.80;1.00;;;8.00;92.50;;;;;;4993937;28;20449;-68
2023/01/08 07:57:29;;;;;;;1.50;0.73;;;8.10;93.00;;;;;;4993889;28;20481;-67
2023/01/08 07:59:55;;;;;;;1.70;1.00;;;8.10;92.40;;;;;;4993525;28;20950;-67
2023/01/08 08:02:23;;;;;;;2.93;1.30;;;8.20;92.10;;;;;;4993451;28;20527;-67
2023/01/08 08:04:50;;;;;;;2.90;1.00;;;8.20;91.90;;;;;;4993795;28;20497;-67
2023/01/08 08:07:17;;;;;;;2.30;1.10;;;8.20;92.00;;;;;;4993850;28;20504;-69
2023/01/08 08:09:43;;;;;;;1.60;0.80;;;8.20;91.80;;;;;;4993762;28;20817;-67
2023/01/08 08:12:10;;;;;;;1.77;0.90;;;8.20;91.90;;;;;;4993662;28;20817;-67
2023/01/08 08:14:37;;;;;;;2.20;1.00;;;8.20;92.40;;;;;;4993665;28;20456;-67
2023/01/08 08:17:03;;;;;;;1.80;0.90;;;8.10;92.30;;;;;;4993458;28;20449;-67
2023/01/08 08:19:31;;;;;;;1.80;1.00;;;8.20;92.60;;;;;;4993557;28;20449;-67
2023/01/08 08:21:58;;;;;;;2.00;1.00;;;8.20;92.10;;;;;;4993482;28;20473;-67
2023/01/08 08:24:24;;;;;;;1.97;1.13;;;8.20;92.40;;;;;;4993619;28;20449;-67
2023/01/08 08:26:53;;;;;;;2.30;0.83;;;8.10;92.30;;;;;;4993634;28;20445;-67
2023/01/08 08:29:19;;;;;;;1.60;0.97;;;8.10;92.60;;;;;;4993623;28;20449;-67
2023/01/08 08:31:46;;;;;;;1.77;0.90;;;8.10;92.70;;;;;;4993404;28;20478;-67
2023/01/08 08:34:13;;;;;;;1.80;1.00;;;8.00;92.90;;;;;;4993837;28;20449;-67
2023/01/08 08:36:41;;;;;;;2.10;0.90;;;8.10;93.20;;;;;;4994025;28;20946;-67
2023/01/08 08:39:07;;;;;;;1.50;0.80;;;8.10;92.80;;;;;;4997135;28;20543;-68
2023/01/08 08:41:35;;;;;;;1.70;1.00;;;8.10;93.00;;;;;;4997209;28;20514;-67
2023/01/08 08:44:02;;;;;;;1.80;1.03;;;8.10;92.70;;;;;;4997350;28;20449;-68
2023/01/08 08:46:29;;;;;;;1.90;1.00;;;8.10;92.80;;;;;;4997100;28;20460;-67
2023/01/08 08:48:55;;;;;;;1.80;1.07;;;8.10;92.30;;;;;;4996998;28;20864;-69
2023/01/08 08:51:22;;;;;;;1.77;0.90;;;8.10;92.70;;;;;;4996565;28;20903;-67
2023/01/08 08:53:50;;;;;;;1.70;0.90;;;8.10;92.60;;;;;;4996680;28;20969;-69
2023/01/08 08:56:17;;;;;;;2.23;0.80;;;8.10;92.90;;;;;;4996574;28;21001;-67
2023/01/08 08:58:44;;;;;;;2.43;0.90;;;8.10;92.70;;;;;;4996815;28;20485;-68
2023/01/08 09:01:11;;;;;;;1.60;0.93;;;8.10;92.30;;;;;;4996494;28;20481;-68
2023/01/08 09:03:38;;;;;;;2.57;1.20;;;8.10;92.30;;;;;;4996762;28;20438;-67
2023/01/08 09:06:05;;;;;;;2.27;1.00;;;8.20;92.30;;;;;;4996422;28;21014;-69
2023/01/08 09:08:32;;;;;;;2.07;1.40;;;8.20;92.00;;;;;;4996764;28;20520;-69
2023/01/08 09:11:02;;;;;;;1.70;0.90;;;8.10;92.00;;;;;;4996578;28;20477;-69
2023/01/08 09:13:29;;;;;;;2.30;1.10;;;8.10;92.10;;;;;;4996251;28;20811;-69
2023/01/08 09:15:58;;;;;;;2.00;1.07;;;8.10;92.20;;;;;;4996223;28;20966;-71
2023/01/08 09:18:24;;;;;;;1.70;0.90;;;8.20;92.30;;;;;;4996479;28;20547;-69
2023/01/08 09:20:51;;;;;;;2.70;1.30;;;8.10;92.00;;;;;;4996516;28;20496;-70
2023/01/08 09:23:18;;;;;;;2.13;1.10;;;8.20;92.30;;;;;;4996554;28;20450;-70
2023/01/08 09:25:44;;;;;;;2.03;1.17;;;8.20;91.70;;;;;;4996346;28;20445;-70
2023/01/08 09:28:13;;;;;;;1.93;1.20;;;8.40;93.30;;;;;;4996398;28;20492;-69
2023/01/08 09:30:40;;;;;;;1.83;0.90;;;8.70;91.30;;;;;;4996051;28;20449;-69
2023/01/08 09:33:06;;;;;;;1.70;0.90;;;8.70;89.90;;;;;;4996106;28;20998;-68
2023/01/08 09:35:33;;;;;;;1.90;1.30;;;8.70;90.40;;;;;;4995941;28;20534;-67
2023/01/08 09:38:00;;;;;;;1.80;1.00;;;8.70;89.60;;;;;;4996377;28;20499;-68
2023/01/08 09:40:35;;;;;;;1.90;0.93;;;8.70;89.70;;;;;;4996297;28;20869;-72
2023/01/08 09:43:04;;;;;;;1.83;1.10;;;8.70;89.70;;;;;;4995920;28;20914;-71
2023/01/08 09:45:35;;;;;;;1.70;0.80;;;8.80;89.50;;;;;;4996017;28;20520;-69
2023/01/08 09:48:05;;;;;;;2.27;0.90;;;8.90;89.30;;;;;;4994913;28;20998;-70
2023/01/08 09:50:34;;;;;;;1.60;0.80;;;9.00;88.80;;;;;;4995982;28;20434;-68
2023/01/08 09:53:01;;;;;;;1.60;0.87;;;9.00;88.20;;;;;;4996120;28;20453;-68
2023/01/08 09:55:32;;;;;;;1.90;1.00;;;8.80;88.50;;;;;;4995885;28;20875;-68
2023/01/08 09:57:59;;;;;;;2.03;1.10;;;8.70;88.90;;;;;;4995764;28;20888;-68
2023/01/08 10:00:29;;;;;;;1.70;0.90;;;8.60;89.20;;;;;;4995291;28;20818;-67
2023/01/08 10:02:57;;;;;;;2.20;1.20;;;8.50;89.70;;;;;;4995247;28;20467;-68
2023/01/08 10:05:26;;;;;;;2.10;1.00;;;8.60;89.60;;;;;;4995610;28;20445;-68
2023/01/08 10:07:53;;;;;;;1.87;1.00;;;8.70;89.30;;;;;;4995565;28;20629;-68
2023/01/08 10:10:23;;;;;;;1.90;0.90;;;8.70;88.80;;;;;;4995610;28;20445;-68
2023/01/08 10:12:50;;;;;;;1.70;0.80;;;8.80;88.80;;;;;;4995513;28;20454;-69
2023/01/08 10:15:19;;;;;;;1.80;0.90;;;8.80;88.10;;;;;;4996024;28;20507;-69
2023/01/08 10:17:49;;;;;;;1.70;0.87;;;8.90;88.00;;;;;;4995289;28;20508;-68
2023/01/08 10:20:20;;;;;;;1.70;0.90;;;8.80;88.30;;;;;;4995801;28;20438;-68
2023/01/08 10:22:47;;;;;;;2.10;1.27;;;8.80;88.00;;;;;;4995408;28;20783;-68
2023/01/08 10:25:16;;;;;;;1.70;0.90;;;8.90;87.90;;;;;;4994932;28;21001;-68
2023/01/08 10:27:48;;;;;;;1.60;0.90;;;8.90;87.60;;;;;;4995189;28;20449;-69
2023/01/08 10:30:16;;;;;;;1.80;1.00;;;9.00;87.90;;;;;;4994855;28;20942;-69
2023/01/08 10:32:48;;;;;;;2.17;0.90;;;9.10;87.10;;;;;;4995227;28;20465;-69
2023/01/08 10:35:20;;;;;;;1.70;0.80;;;9.20;86.50;;;;;;4995531;28;20491;-68
2023/01/08 10:37:49;;;;;;;1.77;0.90;;;9.30;87.00;;;;;;4994893;28;20527;-69
2023/01/08 10:40:24;;;;;;;2.13;0.90;;;9.30;86.00;;;;;;4994964;28;20433;-68
2023/01/08 10:42:52;;;;;;;1.93;0.70;;;9.20;86.70;;;;;;4994676;28;20440;-69
2023/01/08 10:45:22;;;;;;;2.37;1.00;;;9.20;86.70;;;;;;4995014;28;20445;-69
2023/01/08 10:47:52;;;;;;;2.07;1.20;;;9.10;86.50;;;;;;4995690;28;20484;-69
2023/01/08 10:50:23;;;;;;;1.90;1.40;;;9.10;87.20;;;;;;4994584;28;20903;-69
2023/01/08 10:52:54;;;;;;;1.60;0.70;;;9.20;87.30;;;;;;4994766;28;20445;-69
2023/01/08 10:55:26;;;;;;;1.80;1.10;;;9.10;87.00;;;;;;4994727;28;20445;-67
2023/01/08 10:57:55;;;;;;;1.90;0.80;;;9.20;87.00;;;;;;4994706;28;20452;-67
2023/01/08 11:00:24;;;;;;;1.60;0.80;;;9.20;86.70;;;;;;4994487;28;20445;-66
2023/01/08 11:02:51;;;;;;;2.07;0.77;;;9.20;87.20;;;;;;4994251;28;20461;-67
2023/01/08 11:05:20;;;;;;;1.50;0.80;;;9.30;86.90;;;;;;4994468;28;20452;-66
2023/01/08 11:07:55;;;;;;;1.60;0.70;;;9.40;86.20;;;;;;4994508;28;20454;-66
2023/01/08 11:10:24;;;;;;;2.97;1.03;;;9.50;86.10;;;;;;4994395;28;20479;-67
2023/01/08 11:12:56;;;;;;;1.50;0.67;;;9.50;85.80;;;;;;4994610;28;20504;-65
2023/01/08 11:15:36;;;;;;;1.50;0.60;;;9.50;85.20;;;;;;4994141;28;20837;-66
2023/01/08 11:18:21;;;;;;;1.60;0.80;;;9.50;85.60;;;;;;4994320;28;20487;-68
2023/01/08 11:20:50;;;;;;;1.70;0.90;;;9.50;85.30;;;;;;4994372;28;20895;-67
2023/01/08 11:23:19;;;;;;;2.13;0.90;;;9.70;85.70;;;;;;4994382;28;20451;-68
2023/01/08 11:25:56;;;;;;;1.60;0.80;;;9.70;86.00;;;;;;4994255;28;20504;-68
2023/01/08 11:28:31;;;;;;;2.17;0.90;;;9.70;85.10;;;;;;4994354;28;20435;-68
2023/01/08 11:31:10;;;;;;;1.60;0.70;;;9.70;85.00;;;;;;4994134;28;20523;-66
2023/01/08 11:33:39;;;;;;;1.60;0.70;;;9.70;84.60;;;;;;4993908;28;20900;-65
2023/01/08 11:36:17;;;;;;;2.23;0.83;;;9.70;84.90;;;;;;4994172;28;20497;-65
2023/01/08 11:38:44;;;;;;;1.67;0.77;;;9.70;84.60;;;;;;4994054;28;20469;-65
2023/01/08 11:41:21;;;;;;;1.70;0.87;;;9.80;85.20;;;;;;4993976;28;20876;-65
2023/01/08 11:44:04;;;;;;;2.73;0.93;;;9.90;85.00;;;;;;4994008;28;20425;-65
2023/01/08 11:46:38;;;;;;;1.60;0.70;;;10.10;84.00;;;;;;4993971;28;20437;-65
2023/01/08 11:49:26;;;;;;;2.33;0.83;;;10.10;83.30;;;;;;4994008;28;20449;-65
2023/01/08 11:52:07;;;;;;;1.70;0.80;;;10.10;84.20;;;;;;4993868;28;20505;-65
2023/01/08 11:54:53;;;;;;;1.47;0.70;;;10.10;84.50;;;;;;4993864;28;20441;-66
2023/01/08 11:57:34;;;;;;;1.50;0.70;;;10.20;84.20;;;;;;4993913;28;20437;-65
2023/01/08 12:00:21;;;;;;;1.50;0.80;;;10.20;84.10;;;;;;4994832;28;20470;-66
2023/01/08 12:02:52;;;;;;;1.50;0.77;;;10.20;83.00;;;;;;4995791;28;20461;-68
2023/01/08 12:05:30;;;;;;;3.40;0.80;;;10.30;83.40;;;;;;4996060;28;20437;-67
2023/01/08 12:08:04;;;;;;;1.87;0.90;;;10.10;83.20;;;;;;4995877;28;20437;-67
2023/01/08 12:10:42;;;;;;;1.70;0.80;;;10.20;83.40;;;;;;4995764;28;20425;-64
2023/01/08 12:13:24;;;;;;;1.70;0.73;;;10.10;82.60;;;;;;4998869;28;20436;-66
2023/01/08 12:16:01;;;;;;;1.60;0.70;;;10.00;83.60;;;;;;4999637;28;20444;-65
2023/01/08 12:18:41;;;;;;;1.63;0.80;;;10.10;83.60;;;;;;4999441;28;20468;-66
2023/01/08 12:21:14;;;;;;;1.70;0.80;;;10.20;83.50;;;;;;4999455;28;20477;-66
2023/01/08 12:24:04;;;;;;;1.50;0.70;;;10.00;83.20;;;;;;4998011;28;20429;-65
2023/01/08 12:26:39;;;;;;;1.50;0.70;;;10.00;83.60;;;;;;4997529;28;20492;-65
2023/01/08 12:29:40;;;;;;;1.93;1.33;;;10.00;82.90;;;;;;4997476;28;20468;-65
2023/01/08 12:32:21;;;;;;;1.63;0.80;;;10.10;82.90;;;;;;4997371;28;20531;-65
2023/01/08 12:34:54;;;;;;;1.57;0.70;;;10.10;82.90;;;;;;4997338;28;20434;-65
2023/01/08 12:37:26;;;;;;;1.73;0.87;;;10.20;82.40;;;;;;4997295;28;20434;-65
2023/01/08 12:40:01;;;;;;;1.70;0.80;;;10.30;82.50;;;;;;4996931;28;21049;-65
2023/01/08 12:42:30;;;;;;;1.50;0.60;;;10.50;82.70;;;;;;4997119;28;20469;-65
2023/01/08 12:45:00;;;;;;;1.80;0.77;;;10.40;82.60;;;;;;4996898;28;20452;-67
2023/01/08 12:47:30;;;;;;;1.50;0.70;;;10.30;81.80;;;;;;4997072;28;20449;-65
2023/01/08 12:50:15;;;;;;;1.70;1.00;;;10.40;82.30;;;;;;4997164;28;20436;-65
2023/01/08 12:52:48;;;;;;;1.50;0.70;;;10.50;82.20;;;;;;4996932;28;20472;-65
2023/01/08 12:55:40;;;;;;;1.67;0.70;;;10.40;82.30;;;;;;4996609;28;20958;-66
2023/01/08 12:58:18;;;;;;;1.50;0.70;;;10.40;82.30;;;;;;4996981;28;20438;-65
2023/01/08 13:00:52;;;;;;;1.80;0.80;;;10.40;81.60;;;;;;4996579;28;20492;-65
2023/01/08 13:03:23;;;;;;;1.60;0.73;;;10.50;81.40;;;;;;4996845;28;20434;-65
2023/01/08 13:05:50;;;;;;;1.50;0.80;;;10.40;81.60;;;;;;4996820;28;20433;-66
2023/01/08 13:08:31;;;;;;;1.50;0.77;;;10.40;81.50;;;;;;4996711;28;20507;-66
2023/01/08 13:11:00;;;;;;;1.60;0.80;;;10.40;81.50;;;;;;4996705;28;20501;-67
2023/01/08 13:13:29;;;;;;;1.47;0.77;;;10.40;82.20;;;;;;4996324;28;20947;-66
2023/01/08 13:16:19;;;;;;;1.70;0.87;;;10.40;82.90;;;;;;4996551;28;20450;-66
2023/01/08 13:18:54;;;;;;;1.60;0.70;;;10.50;81.90;;;;;;4996550;28;20437;-65
2023/01/08 13:21:35;;;;;;;1.50;0.80;;;10.40;81.90;;;;;;4996426;28;20468;-65
2023/01/08 13:24:22;;;;;;;1.60;0.80;;;10.40;82.00;;;;;;4995191;28;20438;-66
2023/01/08 13:26:50;;;;;;;1.70;0.70;;;10.40;82.30;;;;;;4996074;28;20790;-65
2023/01/08 13:29:38;;;;;;;1.47;0.73;;;10.20;82.60;;;;;;4996350;28;20504;-65
2023/01/08 13:32:22;;;;;;;2.97;1.00;;;10.20;82.50;;;;;;4996269;28;20559;-65
2023/01/08 13:34:48;;;;;;;1.50;0.80;;;10.10;82.50;;;;;;4996244;28;20483;-65
2023/01/08 13:37:24;;;;;;;1.50;0.70;;;10.20;82.30;;;;;;4996138;28;20453;-65
2023/01/08 13:39:50;;;;;;;1.50;0.70;;;10.30;82.20;;;;;;4996144;28;20465;-65
2023/01/08 13:42:27;;;;;;;1.90;1.00;;;10.40;81.80;;;;;;4996038;28;20477;-65
2023/01/08 13:44:58;;;;;;;1.67;0.97;;;10.40;81.40;;;;;;4996130;28;20474;-64
2023/01/08 13:47:31;;;;;;;1.70;0.90;;;10.40;81.50;;;;;;4996018;28;20433;-65
2023/01/08 13:49:59;;;;;;;1.60;0.80;;;10.60;82.00;;;;;;4995987;28;20521;-65
2023/01/08 13:52:34;;;;;;;2.50;1.43;;;10.70;80.90;;;;;;4995966;28;20524;-65
2023/01/08 13:55:04;;;;;;;1.60;0.80;;;10.70;80.90;;;;;;4995528;28;20872;-66
2023/01/08 13:57:37;;;;;;;1.60;0.80;;;10.90;80.80;;;;;;4995781;28;20453;-65
2023/01/08 14:00:06;;;;;;;1.40;0.60;;;11.30;79.00;;;;;;4995740;28;20565;-65
2023/01/08 14:02:43;;;;;;;1.50;0.80;;;11.60;77.50;;;;;;4995228;28;20540;-65
2023/01/08 14:05:19;;;;;;;1.80;0.80;;;12.90;74.80;;;;;;4995380;28;20437;-65
2023/01/08 14:07:45;;;;;;;2.30;1.00;;;13.80;71.40;;;;;;4995349;28;20829;-65
2023/01/08 14:10:14;;;;;;;1.80;0.80;;;13.50;71.60;;;;;;4995532;28;20469;-65
2023/01/08 14:12:42;;;;;;;1.63;0.80;;;13.90;71.00;;;;;;4995452;28;20535;-65
2023/01/08 14:15:15;;;;;;;1.47;0.67;;;15.00;67.70;;;;;;4995474;28;20456;-65
2023/01/08 14:17:43;;;;;;;1.50;0.60;;;16.10;63.50;;;;;;4995450;28;20437;-65
2023/01/08 14:20:12;;;;;;;1.47;0.70;;;16.50;62.90;;;;;;4995320;28;20899;-65
2023/01/08 14:22:41;;;;;;;1.50;0.70;;;15.90;63.30;;;;;;4995322;28;20469;-65
2023/01/08 14:25:08;;;;;;;1.70;0.73;;;15.20;65.00;;;;;;4995237;28;20449;-65
2023/01/08 14:27:35;;;;;;;1.73;0.80;;;14.20;67.60;;;;;;4995209;28;20456;-65
2023/01/08 14:30:15;;;;;;;1.40;0.60;;;13.50;69.70;;;;;;4995128;28;20497;-65
2023/01/08 14:32:43;;;;;;;1.50;0.60;;;12.50;72.20;;;;;;4995109;28;20519;-65
2023/01/08 14:35:16;;;;;;;1.50;0.70;;;12.00;73.90;;;;;;4994693;28;20455;-65
2023/01/08 14:37:43;;;;;;;1.80;0.80;;;11.60;75.30;;;;;;4995084;28;20433;-65
2023/01/08 14:40:14;;;;;;;1.60;0.73;;;11.30;76.40;;;;;;4994882;28;20903;-65
2023/01/08 14:42:45;;;;;;;1.50;0.70;;;11.10;76.70;;;;;;4994868;28;20475;-65
2023/01/08 14:45:19;;;;;;;1.50;0.60;;;11.10;77.20;;;;;;4994840;28;20437;-66
2023/01/08 14:47:48;;;;;;;1.43;0.70;;;11.00;77.10;;;;;;4994862;28;20434;-65
2023/01/08 14:50:26;;;;;;;1.40;0.70;;;11.10;77.40;;;;;;4994801;28;20536;-65
2023/01/08 14:52:57;;;;;;;1.73;0.90;;;11.10;78.00;;;;;;4994770;28;20429;-65
2023/01/08 14:55:25;;;;;;;1.50;0.90;;;11.00;77.00;;;;;;4994740;28;20850;-65
2023/01/08 14:57:54;;;;;;;1.63;0.73;;;11.00;78.00;;;;;;4994656;28;20503;-65
2023/01/08 15:00:25;;;;;;;2.00;1.23;;;10.90;78.20;;;;;;4994214;28;20857;-67
2023/01/08 15:02:51;;;;;;;2.77;1.23;;;10.90;78.40;;;;;;4994234;28;20465;-65
2023/01/08 15:05:20;;;;;;;1.70;0.93;;;10.90;78.10;;;;;;4994567;28;20511;-66
2023/01/08 15:08:00;;;;;;;1.53;0.80;;;10.80;78.00;;;;;;4994540;28;20449;-67
2023/01/08 15:10:39;;;;;;;1.50;0.80;;;10.70;78.40;;;;;;4994434;28;20475;-65
2023/01/08 15:13:07;;;;;;;1.50;0.70;;;10.80;78.40;;;;;;4994461;28;20448;-66
2023/01/08 15:15:49;;;;;;;1.60;0.73;;;10.70;78.60;;;;;;4994687;28;20453;-67
2023/01/08 15:18:15;;;;;;;1.40;0.70;;;10.90;78.70;;;;;;4994677;28;20492;-66
2023/01/08 15:20:44;;;;;;;1.90;0.80;;;10.80;78.10;;;;;;4994195;28;20489;-66
2023/01/08 15:23:25;;;;;;;1.40;0.60;;;10.80;78.70;;;;;;4994283;28;20446;-67
2023/01/08 15:25:52;;;;;;;1.80;1.20;;;10.80;78.50;;;;;;4994244;28;20437;-67
2023/01/08 15:28:20;;;;;;;1.50;0.70;;;10.90;78.40;;;;;;4994122;28;20453;-69
2023/01/08 15:30:49;;;;;;;1.70;0.93;;;11.00;78.50;;;;;;4994075;28;20472;-68
2023/01/08 15:33:20;;;;;;;1.63;0.83;;;11.00;78.50;;;;;;4994171;28;20447;-67
2023/01/08 15:35:48;;;;;;;1.50;0.73;;;11.10;77.70;;;;;;4993851;28;20434;-67
2023/01/08 15:38:15;;;;;;;1.60;0.90;;;11.00;77.80;;;;;;4993999;28;20449;-67
2023/01/08 15:40:42;;;;;;;1.70;0.90;;;10.90;78.20;;;;;;4993911;28;20544;-66
2023/01/08 15:43:11;;;;;;;1.60;0.90;;;10.80;78.50;;;;;;4993653;28;20972;-67
2023/01/08 15:45:39;;;;;;;2.17;1.53;;;10.80;78.30;;;;;;4993704;28;20456;-67
2023/01/08 15:48:08;;;;;;;3.10;1.80;;;10.70;78.80;;;;;;4993411;28;20460;-65
2023/01/08 15:50:37;;;;;;;2.63;2.00;;;10.60;79.70;;;;;;4993572;28;20869;-66
2023/01/08 15:53:06;;;;;;;1.77;1.00;;;10.70;79.20;;;;;;4993918;28;20485;-69
2023/01/08 15:55:33;;;;;;;1.63;0.80;;;10.70;79.20;;;;;;4993886;28;20450;-71
2023/01/08 15:58:00;;;;;;;1.70;0.70;;;10.80;79.30;;;;;;4993818;28;20445;-68
2023/01/08 16:00:27;;;;;;;1.70;0.90;;;10.90;78.90;;;;;;4993590;28;20564;-68
2023/01/08 16:02:54;;;;;;;2.63;0.80;;;11.00;78.60;;;;;;4993425;28;20465;-68
2023/01/08 16:05:25;;;;;;;1.60;0.70;;;11.10;78.20;;;;;;4993785;28;20481;-68
2023/01/08 16:07:51;;;;;;;1.40;0.70;;;11.10;78.00;;;;;;4994219;28;20443;-68
2023/01/08 16:10:19;;;;;;;2.17;0.83;;;11.20;77.60;;;;;;4994704;28;20958;-72
2023/01/08 16:12:46;;;;;;;1.50;0.80;;;11.20;77.80;;;;;;4994640;28;20470;-69
2023/01/08 16:17:41;;;;;;;1.80;1.00;;;11.20;77.30;;;;;;4993184;28;20477;-69
2023/01/08 16:20:10;;;;;;;1.60;0.90;;;11.10;77.70;;;;;;4995173;28;20575;-69
2023/01/08 16:22:38;;;;;;;1.60;0.90;;;11.30;78.10;;;;;;4994233;28;20512;-69
2023/01/08 16:25:05;;;;;;;1.60;0.80;;;11.30;77.80;;;;;;4995871;28;20446;-67
2023/01/08 16:27:32;;;;;;;2.47;1.70;;;11.30;77.70;;;;;;5014534;28;20452;-68
2023/01/08 16:30:00;;;;;;;2.40;2.10;;;11.20;78.20;;;;;;5014148;28;20436;-69
2023/01/08 16:32:26;;;;;;;2.33;1.80;;;11.00;78.80;;;;;;5014529;28;20448;-69
2023/01/08 16:34:53;;;;;;;2.53;1.30;;;11.00;78.80;;;;;;5014561;28;20444;-69
2023/01/08 16:37:20;;;;;;;1.67;0.90;;;10.90;78.70;;;;;;5014774;28;20579;-69
2023/01/08 16:39:48;;;;;;;1.60;0.97;;;10.90;78.70;;;;;;5014582;28;20452;-75
2023/01/08 16:42:15;;;;;;;2.17;1.30;;;10.90;79.10;;;;;;5014364;28;20460;-69
2023/01/08 16:44:42;;;;;;;1.70;0.97;;;11.00;78.80;;;;;;5014572;28;20448;-70
2023/01/08 16:47:08;;;;;;;2.13;1.60;;;11.10;78.60;;;;;;5014789;28;20472;-69
2023/01/08 16:49:35;;;;;;;2.37;1.60;;;11.20;78.50;;;;;;5014752;28;20837;-68
2023/01/08 16:52:02;;;;;;;2.50;2.20;;;11.30;78.20;;;;;;5014165;28;20482;-69
2023/01/08 16:54:30;;;;;;;2.20;1.27;;;11.30;77.60;;;;;;5014581;28;20453;-69
2023/01/08 16:56:58;;;;;;;2.30;1.40;;;11.20;77.60;;;;;;5014281;28;20526;-71
2023/01/08 16:59:26;;;;;;;2.40;1.70;;;11.20;78.00;;;;;;5018144;28;20453;-69
2023/01/08 17:01:53;;;;;;;3.00;2.60;;;11.30;77.80;;;;;;5017780;28;20483;-69
2023/01/08 17:04:19;;;;;;;3.40;2.70;;;11.30;77.70;;;;;;5018176;28;20444;-69
2023/01/08 17:06:46;;;;;;;4.60;2.70;;;11.40;77.60;;;;;;5017941;28;20487;-70
2023/01/08 17:09:13;;;;;;;2.80;2.47;;;11.50;77.50;;;;;;5017073;28;20467;-69